sensor_id;sensor_type;location;lat;lon;timestamp;pressure;altitude;pressure_sealevel;temperature;humidity
76819;BME280;65772;51.096;17.006;2023-12-14T00:00:19;99052.91;;;9.17;67.99
76819;BME280;65772;51.096;17.006;2023-12-14T00:02:50;99059.95;;;9.20;68.04
76819;BME280;65772;51.096;17.006;2023-12-14T00:05:20;99065.77;;;9.23;67.53
76819;BME280;65772;51.096;17.006;2023-12-14T00:07:51;99063.44;;;9.27;67.76
76819;BME280;65772;51.096;17.006;2023-12-14T00:10:21;99066.84;;;9.27;67.55
76819;BME280;65772;51.096;17.006;2023-12-14T00:12:52;99068.49;;;9.23;67.68
76819;BME280;65772;51.096;17.006;2023-12-14T00:15:24;99072.02;;;9.19;67.58
76819;BME280;65772;51.096;17.006;2023-12-14T00:17:55;99075.55;;;9.17;68.17
76819;BME280;65772;51.096;17.006;2023-12-14T00:20:25;99072.66;;;9.16;67.84
76819;BME280;65772;51.096;17.006;2023-12-14T00:22:56;99078.27;;;9.16;67.97
76819;BME280;65772;51.096;17.006;2023-12-14T00:25:35;99083.50;;;9.13;67.84
76819;BME280;65772;51.096;17.006;2023-12-14T00:28:05;99088.58;;;9.10;67.41
76819;BME280;65772;51.096;17.006;2023-12-14T00:30:36;99095.02;;;9.08;67.75
76819;BME280;65772;51.096;17.006;2023-12-14T00:33:07;99095.13;;;9.05;67.76
76819;BME280;65772;51.096;17.006;2023-12-14T00:35:37;99091.92;;;9.07;67.49
76819;BME280;65772;51.096;17.006;2023-12-14T00:38:08;99092.50;;;9.10;67.60
76819;BME280;65772;51.096;17.006;2023-12-14T00:40:39;99098.98;;;9.13;67.89
76819;BME280;65772;51.096;17.006;2023-12-14T00:43:09;99104.11;;;9.14;67.79
76819;BME280;65772;51.096;17.006;2023-12-14T00:45:40;99106.98;;;9.13;67.89
76819;BME280;65772;51.096;17.006;2023-12-14T00:48:11;99111.08;;;9.13;67.76
76819;BME280;65772;51.096;17.006;2023-12-14T00:50:41;99115.48;;;9.12;67.60
76819;BME280;65772;51.096;17.006;2023-12-14T00:53:12;99121.10;;;9.11;67.65
76819;BME280;65772;51.096;17.006;2023-12-14T00:55:42;99127.38;;;9.10;67.67
76819;BME280;65772;51.096;17.006;2023-12-14T00:58:15;99128.58;;;9.09;67.32
76819;BME280;65772;51.096;17.006;2023-12-14T01:00:46;99130.76;;;9.08;67.60
76819;BME280;65772;51.096;17.006;2023-12-14T01:03:16;99131.41;;;9.07;67.35
76819;BME280;65772;51.096;17.006;2023-12-14T01:05:47;99134.94;;;9.04;67.47
76819;BME280;65772;51.096;17.006;2023-12-14T01:08:18;99136.09;;;9.02;67.56
76819;BME280;65772;51.096;17.006;2023-12-14T01:10:48;99140.86;;;9.02;67.79
76819;BME280;65772;51.096;17.006;2023-12-14T01:13:19;99142.73;;;9.01;67.67
76819;BME280;65772;51.096;17.006;2023-12-14T01:15:50;99140.16;;;8.99;67.43
76819;BME280;65772;51.096;17.006;2023-12-14T01:18:20;99143.75;;;9.02;67.58
76819;BME280;65772;51.096;17.006;2023-12-14T01:20:51;99145.69;;;9.05;67.64
76819;BME280;65772;51.096;17.006;2023-12-14T01:23:22;99146.73;;;9.07;67.66
76819;BME280;65772;51.096;17.006;2023-12-14T01:25:52;99148.95;;;9.07;67.74
76819;BME280;65772;51.096;17.006;2023-12-14T01:28:23;99150.48;;;9.07;67.53
76819;BME280;65772;51.096;17.006;2023-12-14T01:30:54;99152.86;;;9.06;67.52
76819;BME280;65772;51.096;17.006;2023-12-14T01:33:26;99151.84;;;9.06;67.66
76819;BME280;65772;51.096;17.006;2023-12-14T01:35:57;99149.25;;;9.05;67.75
76819;BME280;65772;51.096;17.006;2023-12-14T01:38:28;99147.54;;;9.05;67.17
76819;BME280;65772;51.096;17.006;2023-12-14T01:40:58;99150.61;;;9.04;67.55
76819;BME280;65772;51.096;17.006;2023-12-14T01:43:30;99148.88;;;9.03;67.41
76819;BME280;65772;51.096;17.006;2023-12-14T01:46:00;99147.83;;;9.01;67.40
76819;BME280;65772;51.096;17.006;2023-12-14T01:48:31;99144.73;;;8.98;67.17
76819;BME280;65772;51.096;17.006;2023-12-14T01:51:02;99148.11;;;8.96;67.29
76819;BME280;65772;51.096;17.006;2023-12-14T01:53:32;99145.68;;;8.95;67.66
76819;BME280;65772;51.096;17.006;2023-12-14T01:56:03;99146.50;;;8.93;67.33
76819;BME280;65772;51.096;17.006;2023-12-14T01:58:34;99147.33;;;8.91;67.40
76819;BME280;65772;51.096;17.006;2023-12-14T02:01:10;99151.27;;;8.93;67.31
76819;BME280;65772;51.096;17.006;2023-12-14T02:03:50;99148.77;;;8.96;67.60
76819;BME280;65772;51.096;17.006;2023-12-14T02:06:23;99148.84;;;8.99;67.14
76819;BME280;65772;51.096;17.006;2023-12-14T02:08:54;99152.09;;;9.02;67.43
76819;BME280;65772;51.096;17.006;2023-12-14T02:11:24;99147.85;;;9.03;66.87
76819;BME280;65772;51.096;17.006;2023-12-14T02:13:55;99145.27;;;9.02;67.25
76819;BME280;65772;51.096;17.006;2023-12-14T02:16:26;99146.63;;;9.01;67.43
76819;BME280;65772;51.096;17.006;2023-12-14T02:18:57;99150.55;;;9.01;67.45
76819;BME280;65772;51.096;17.006;2023-12-14T02:21:28;99152.96;;;9.03;67.45
76819;BME280;65772;51.096;17.006;2023-12-14T02:23:58;99156.89;;;9.03;67.35
76819;BME280;65772;51.096;17.006;2023-12-14T02:26:29;99158.73;;;9.02;67.45
76819;BME280;65772;51.096;17.006;2023-12-14T02:28:59;99166.02;;;9.01;67.17
76819;BME280;65772;51.096;17.006;2023-12-14T02:31:30;99173.00;;;9.00;67.41
76819;BME280;65772;51.096;17.006;2023-12-14T02:34:01;99175.89;;;8.99;67.28
76819;BME280;65772;51.096;17.006;2023-12-14T02:36:31;99181.13;;;8.97;67.39
76819;BME280;65772;51.096;17.006;2023-12-14T02:39:02;99184.66;;;8.95;67.26
76819;BME280;65772;51.096;17.006;2023-12-14T02:41:32;99188.36;;;8.93;67.30
76819;BME280;65772;51.096;17.006;2023-12-14T02:44:03;99191.14;;;8.95;67.31
76819;BME280;65772;51.096;17.006;2023-12-14T02:46:33;99192.00;;;8.96;66.95
76819;BME280;65772;51.096;17.006;2023-12-14T02:49:04;99194.61;;;8.98;67.17
76819;BME280;65772;51.096;17.006;2023-12-14T02:51:35;99194.27;;;8.99;67.52
76819;BME280;65772;51.096;17.006;2023-12-14T02:54:05;99198.73;;;9.02;67.06
76819;BME280;65772;51.096;17.006;2023-12-14T02:56:36;99200.62;;;9.03;67.21
76819;BME280;65772;51.096;17.006;2023-12-14T02:59:06;99204.52;;;9.02;66.87
76819;BME280;65772;51.096;17.006;2023-12-14T03:01:37;99205.70;;;9.02;66.91
76819;BME280;65772;51.096;17.006;2023-12-14T03:04:09;99208.92;;;9.00;66.80
76819;BME280;65772;51.096;17.006;2023-12-14T03:06:39;99205.84;;;8.98;66.92
76819;BME280;65772;51.096;17.006;2023-12-14T03:09:10;99211.25;;;8.96;66.82
76819;BME280;65772;51.096;17.006;2023-12-14T03:11:40;99213.07;;;8.94;66.93
76819;BME280;65772;51.096;17.006;2023-12-14T03:14:11;99215.13;;;8.95;66.97
76819;BME280;65772;51.096;17.006;2023-12-14T03:16:41;99217.34;;;8.95;67.05
76819;BME280;65772;51.096;17.006;2023-12-14T03:19:12;99221.38;;;8.93;66.97
76819;BME280;65772;51.096;17.006;2023-12-14T03:21:42;99222.54;;;8.90;66.84
76819;BME280;65772;51.096;17.006;2023-12-14T03:24:13;99225.40;;;8.89;66.89
76819;BME280;65772;51.096;17.006;2023-12-14T03:26:44;99227.95;;;8.89;66.91
76819;BME280;65772;51.096;17.006;2023-12-14T03:29:14;99235.14;;;8.91;66.95
76819;BME280;65772;51.096;17.006;2023-12-14T03:31:45;99238.05;;;8.92;66.76
76819;BME280;65772;51.096;17.006;2023-12-14T03:34:16;99240.25;;;8.92;67.07
76819;BME280;65772;51.096;17.006;2023-12-14T03:36:47;99244.70;;;8.93;67.29
76819;BME280;65772;51.096;17.006;2023-12-14T03:39:17;99243.16;;;8.93;67.34
76819;BME280;65772;51.096;17.006;2023-12-14T03:41:48;99245.05;;;8.94;67.28
76819;BME280;65772;51.096;17.006;2023-12-14T03:44:19;99246.10;;;8.95;67.11
76819;BME280;65772;51.096;17.006;2023-12-14T03:46:49;99251.22;;;8.95;66.98
76819;BME280;65772;51.096;17.006;2023-12-14T03:49:20;99253.41;;;8.95;67.11
76819;BME280;65772;51.096;17.006;2023-12-14T03:51:50;99256.98;;;8.94;67.12
76819;BME280;65772;51.096;17.006;2023-12-14T03:54:21;99260.38;;;8.93;66.93
76819;BME280;65772;51.096;17.006;2023-12-14T03:56:52;99263.55;;;8.92;67.08
76819;BME280;65772;51.096;17.006;2023-12-14T03:59:22;99264.56;;;8.90;67.10
76819;BME280;65772;51.096;17.006;2023-12-14T04:01:53;99269.65;;;8.88;67.18
76819;BME280;65772;51.096;17.006;2023-12-14T04:04:23;99271.98;;;8.86;67.36
76819;BME280;65772;51.096;17.006;2023-12-14T04:06:54;99276.77;;;8.87;67.37
76819;BME280;65772;51.096;17.006;2023-12-14T04:09:24;99281.37;;;8.87;67.08
76819;BME280;65772;51.096;17.006;2023-12-14T04:11:55;99288.73;;;8.89;67.41
76819;BME280;65772;51.096;17.006;2023-12-14T04:14:25;99295.37;;;8.89;67.74
76819;BME280;65772;51.096;17.006;2023-12-14T04:16:56;99298.09;;;8.90;67.41
76819;BME280;65772;51.096;17.006;2023-12-14T04:19:26;99302.71;;;8.92;67.64
76819;BME280;65772;51.096;17.006;2023-12-14T04:21:57;99305.45;;;8.93;67.52
76819;BME280;65772;51.096;17.006;2023-12-14T04:24:27;99312.77;;;8.93;67.42
76819;BME280;65772;51.096;17.006;2023-12-14T04:26:58;99318.08;;;8.94;67.54
76819;BME280;65772;51.096;17.006;2023-12-14T04:29:28;99315.91;;;8.96;67.50
76819;BME280;65772;51.096;17.006;2023-12-14T04:31:59;99315.95;;;8.98;67.35
76819;BME280;65772;51.096;17.006;2023-12-14T04:34:30;99318.02;;;8.99;67.69
76819;BME280;65772;51.096;17.006;2023-12-14T04:37:01;99323.77;;;8.97;67.56
76819;BME280;65772;51.096;17.006;2023-12-14T04:39:31;99329.60;;;8.99;67.64
76819;BME280;65772;51.096;17.006;2023-12-14T04:42:02;99333.20;;;9.02;67.22
76819;BME280;65772;51.096;17.006;2023-12-14T04:44:32;99334.14;;;9.06;67.30
76819;BME280;65772;51.096;17.006;2023-12-14T04:47:03;99336.20;;;9.07;67.30
76819;BME280;65772;51.096;17.006;2023-12-14T04:49:34;99331.92;;;9.06;67.02
76819;BME280;65772;51.096;17.006;2023-12-14T04:52:05;99332.73;;;9.04;67.52
76819;BME280;65772;51.096;17.006;2023-12-14T04:54:35;99335.77;;;9.03;67.34
76819;BME280;65772;51.096;17.006;2023-12-14T04:57:09;99335.10;;;9.03;67.48
76819;BME280;65772;51.096;17.006;2023-12-14T04:59:42;99340.39;;;9.03;67.35
76819;BME280;65772;51.096;17.006;2023-12-14T05:02:12;99341.07;;;9.04;67.34
76819;BME280;65772;51.096;17.006;2023-12-14T05:04:43;99344.81;;;9.03;67.25
76819;BME280;65772;51.096;17.006;2023-12-14T05:07:14;99348.50;;;9.00;67.55
76819;BME280;65772;51.096;17.006;2023-12-14T05:09:44;99347.41;;;8.97;67.24
76819;BME280;65772;51.096;17.006;2023-12-14T05:12:15;99353.10;;;8.92;67.31
76819;BME280;65772;51.096;17.006;2023-12-14T05:14:45;99357.95;;;8.87;67.49
76819;BME280;65772;51.096;17.006;2023-12-14T05:17:16;99361.74;;;8.82;67.53
76819;BME280;65772;51.096;17.006;2023-12-14T05:19:47;99364.61;;;8.81;67.67
76819;BME280;65772;51.096;17.006;2023-12-14T05:22:17;99364.64;;;8.82;67.64
76819;BME280;65772;51.096;17.006;2023-12-14T05:24:48;99369.96;;;8.84;67.65
76819;BME280;65772;51.096;17.006;2023-12-14T05:27:19;99374.45;;;8.87;67.31
76819;BME280;65772;51.096;17.006;2023-12-14T05:29:49;99379.39;;;8.87;67.70
76819;BME280;65772;51.096;17.006;2023-12-14T05:32:20;99385.69;;;8.87;67.74
76819;BME280;65772;51.096;17.006;2023-12-14T05:34:51;99391.81;;;8.87;67.79
76819;BME280;65772;51.096;17.006;2023-12-14T05:37:21;99398.79;;;8.87;67.70
76819;BME280;65772;51.096;17.006;2023-12-14T05:39:52;99401.81;;;8.86;67.43
76819;BME280;65772;51.096;17.006;2023-12-14T05:42:22;99402.45;;;8.83;67.30
76819;BME280;65772;51.096;17.006;2023-12-14T05:44:53;99404.09;;;8.80;67.30
76819;BME280;65772;51.096;17.006;2023-12-14T05:47:23;99403.36;;;8.78;67.44
76819;BME280;65772;51.096;17.006;2023-12-14T05:49:56;99410.46;;;8.75;67.42
76819;BME280;65772;51.096;17.006;2023-12-14T05:52:26;99415.32;;;8.72;67.10
76819;BME280;65772;51.096;17.006;2023-12-14T05:54:57;99424.63;;;8.71;67.36
76819;BME280;65772;51.096;17.006;2023-12-14T05:57:32;99428.90;;;8.71;67.35
76819;BME280;65772;51.096;17.006;2023-12-14T06:00:03;99431.33;;;8.73;67.35
76819;BME280;65772;51.096;17.006;2023-12-14T06:02:35;99430.89;;;8.76;67.37
76819;BME280;65772;51.096;17.006;2023-12-14T06:05:08;99434.89;;;8.80;67.67
76819;BME280;65772;51.096;17.006;2023-12-14T06:07:39;99441.77;;;8.84;67.59
76819;BME280;65772;51.096;17.006;2023-12-14T06:10:11;99444.73;;;8.87;67.56
76819;BME280;65772;51.096;17.006;2023-12-14T06:12:41;99445.81;;;8.90;66.94
76819;BME280;65772;51.096;17.006;2023-12-14T06:15:12;99450.52;;;8.95;67.25
76819;BME280;65772;51.096;17.006;2023-12-14T06:17:43;99447.14;;;8.96;67.13
76819;BME280;65772;51.096;17.006;2023-12-14T06:20:13;99444.91;;;8.95;67.17
76819;BME280;65772;51.096;17.006;2023-12-14T06:22:44;99453.91;;;8.94;67.14
76819;BME280;65772;51.096;17.006;2023-12-14T06:25:15;99453.02;;;8.93;67.08
76819;BME280;65772;51.096;17.006;2023-12-14T06:27:45;99456.54;;;8.90;67.06
76819;BME280;65772;51.096;17.006;2023-12-14T06:30:16;99460.10;;;8.89;67.05
76819;BME280;65772;51.096;17.006;2023-12-14T06:32:47;99463.45;;;8.87;66.99
76819;BME280;65772;51.096;17.006;2023-12-14T06:35:18;99467.70;;;8.86;66.98
76819;BME280;65772;51.096;17.006;2023-12-14T06:37:48;99472.64;;;8.87;66.76
76819;BME280;65772;51.096;17.006;2023-12-14T06:40:19;99469.60;;;8.88;66.72
76819;BME280;65772;51.096;17.006;2023-12-14T06:42:50;99476.77;;;8.89;67.04
76819;BME280;65772;51.096;17.006;2023-12-14T06:45:20;99483.27;;;8.90;67.02
76819;BME280;65772;51.096;17.006;2023-12-14T06:47:51;99485.30;;;8.90;66.92
76819;BME280;65772;51.096;17.006;2023-12-14T06:50:21;99486.27;;;8.87;67.02
76819;BME280;65772;51.096;17.006;2023-12-14T06:52:52;99493.04;;;8.86;67.35
76819;BME280;65772;51.096;17.006;2023-12-14T06:55:22;99499.84;;;8.86;67.13
76819;BME280;65772;51.096;17.006;2023-12-14T06:57:53;99509.23;;;8.87;67.04
76819;BME280;65772;51.096;17.006;2023-12-14T07:00:24;99513.04;;;8.89;67.12
76819;BME280;65772;51.096;17.006;2023-12-14T07:02:54;99521.42;;;8.92;67.34
76819;BME280;65772;51.096;17.006;2023-12-14T07:05:25;99520.09;;;8.93;66.79
76819;BME280;65772;51.096;17.006;2023-12-14T07:07:56;99528.25;;;8.93;66.98
76819;BME280;65772;51.096;17.006;2023-12-14T07:10:27;99533.14;;;8.91;66.87
76819;BME280;65772;51.096;17.006;2023-12-14T07:12:57;99533.11;;;8.89;66.62
76819;BME280;65772;51.096;17.006;2023-12-14T07:15:28;99537.85;;;8.88;66.75
76819;BME280;65772;51.096;17.006;2023-12-14T07:17:58;99539.41;;;8.89;66.90
76819;BME280;65772;51.096;17.006;2023-12-14T07:20:29;99543.20;;;8.92;66.55
76819;BME280;65772;51.096;17.006;2023-12-14T07:22:59;99547.31;;;8.93;66.58
76819;BME280;65772;51.096;17.006;2023-12-14T07:25:30;99550.85;;;8.92;66.65
76819;BME280;65772;51.096;17.006;2023-12-14T07:28:01;99556.79;;;8.90;66.55
76819;BME280;65772;51.096;17.006;2023-12-14T07:30:31;99561.55;;;8.90;66.55
76819;BME280;65772;51.096;17.006;2023-12-14T07:33:02;99564.95;;;8.90;66.47
76819;BME280;65772;51.096;17.006;2023-12-14T07:35:35;99565.64;;;8.91;66.64
76819;BME280;65772;51.096;17.006;2023-12-14T07:38:05;99567.00;;;8.90;66.66
76819;BME280;65772;51.096;17.006;2023-12-14T07:40:36;99572.77;;;8.89;66.61
76819;BME280;65772;51.096;17.006;2023-12-14T07:43:08;99576.13;;;8.87;66.62
76819;BME280;65772;51.096;17.006;2023-12-14T07:45:38;99582.75;;;8.86;66.26
76819;BME280;65772;51.096;17.006;2023-12-14T07:48:09;99586.10;;;8.85;66.01
76819;BME280;65772;51.096;17.006;2023-12-14T07:50:40;99594.03;;;8.82;66.30
76819;BME280;65772;51.096;17.006;2023-12-14T07:53:10;99599.45;;;8.80;66.00
76819;BME280;65772;51.096;17.006;2023-12-14T07:55:41;99603.51;;;8.79;65.97
76819;BME280;65772;51.096;17.006;2023-12-14T07:58:12;99612.52;;;8.80;65.91
76819;BME280;65772;51.096;17.006;2023-12-14T08:00:43;99615.80;;;8.82;66.11
76819;BME280;65772;51.096;17.006;2023-12-14T08:03:14;99621.17;;;8.85;66.32
76819;BME280;65772;51.096;17.006;2023-12-14T08:05:44;99622.39;;;8.86;65.89
76819;BME280;65772;51.096;17.006;2023-12-14T08:08:15;99628.90;;;8.88;66.24
76819;BME280;65772;51.096;17.006;2023-12-14T08:10:46;99633.84;;;8.88;66.19
76819;BME280;65772;51.096;17.006;2023-12-14T08:13:16;99635.23;;;8.89;65.96
76819;BME280;65772;51.096;17.006;2023-12-14T08:15:47;99633.17;;;8.88;65.99
76819;BME280;65772;51.096;17.006;2023-12-14T08:18:18;99636.59;;;8.88;65.90
76819;BME280;65772;51.096;17.006;2023-12-14T08:20:49;99638.96;;;8.88;66.14
76819;BME280;65772;51.096;17.006;2023-12-14T08:23:24;99641.88;;;8.90;65.99
76819;BME280;65772;51.096;17.006;2023-12-14T08:25:57;99640.18;;;8.90;65.69
76819;BME280;65772;51.096;17.006;2023-12-14T08:28:28;99643.08;;;8.90;65.74
76819;BME280;65772;51.096;17.006;2023-12-14T08:30:59;99645.67;;;8.92;65.76
76819;BME280;65772;51.096;17.006;2023-12-14T08:33:31;99650.95;;;8.92;65.28
76819;BME280;65772;51.096;17.006;2023-12-14T08:36:02;99657.02;;;8.90;65.82
76819;BME280;65772;51.096;17.006;2023-12-14T08:38:34;99662.58;;;8.87;65.62
76819;BME280;65772;51.096;17.006;2023-12-14T08:41:05;99671.90;;;8.86;65.61
76819;BME280;65772;51.096;17.006;2023-12-14T08:43:36;99679.06;;;8.86;65.49
76819;BME280;65772;51.096;17.006;2023-12-14T08:46:06;99687.98;;;8.89;65.90
76819;BME280;65772;51.096;17.006;2023-12-14T08:48:37;99688.21;;;8.92;65.44
76819;BME280;65772;51.096;17.006;2023-12-14T08:51:08;99697.12;;;8.93;65.51
76819;BME280;65772;51.096;17.006;2023-12-14T08:53:39;99705.83;;;8.94;65.60
76819;BME280;65772;51.096;17.006;2023-12-14T08:56:11;99709.08;;;8.95;65.89
76819;BME280;65772;51.096;17.006;2023-12-14T08:58:41;99711.50;;;8.96;65.97
76819;BME280;65772;51.096;17.006;2023-12-14T09:01:12;99714.03;;;8.96;65.70
76819;BME280;65772;51.096;17.006;2023-12-14T09:03:49;99715.05;;;8.95;65.43
76819;BME280;65772;51.096;17.006;2023-12-14T09:06:20;99717.29;;;8.96;65.44
76819;BME280;65772;51.096;17.006;2023-12-14T09:08:50;99722.07;;;8.97;65.50
76819;BME280;65772;51.096;17.006;2023-12-14T09:11:21;99722.20;;;8.96;65.33
76819;BME280;65772;51.096;17.006;2023-12-14T09:13:51;99726.37;;;8.93;65.51
76819;BME280;65772;51.096;17.006;2023-12-14T09:16:22;99728.90;;;8.92;65.77
76819;BME280;65772;51.096;17.006;2023-12-14T09:18:53;99732.48;;;8.92;65.95
76819;BME280;65772;51.096;17.006;2023-12-14T09:21:23;99735.03;;;8.92;65.77
76819;BME280;65772;51.096;17.006;2023-12-14T09:24:08;99736.20;;;8.91;65.67
76819;BME280;65772;51.096;17.006;2023-12-14T09:26:42;99734.63;;;8.89;65.48
76819;BME280;65772;51.096;17.006;2023-12-14T09:29:12;99735.48;;;8.89;65.64
76819;BME280;65772;51.096;17.006;2023-12-14T09:31:45;99734.29;;;8.89;65.42
76819;BME280;65772;51.096;17.006;2023-12-14T09:34:16;99735.69;;;8.91;65.41
76819;BME280;65772;51.096;17.006;2023-12-14T09:36:47;99741.84;;;8.92;65.83
76819;BME280;65772;51.096;17.006;2023-12-14T09:39:17;99745.94;;;8.93;65.84
76819;BME280;65772;51.096;17.006;2023-12-14T09:41:51;99747.04;;;8.95;65.77
76819;BME280;65772;51.096;17.006;2023-12-14T09:44:22;99751.85;;;8.97;65.56
76819;BME280;65772;51.096;17.006;2023-12-14T09:46:53;99755.30;;;8.98;65.42
76819;BME280;65772;51.096;17.006;2023-12-14T09:49:25;99756.44;;;8.96;65.74
76819;BME280;65772;51.096;17.006;2023-12-14T09:51:58;99757.77;;;8.96;65.50
76819;BME280;65772;51.096;17.006;2023-12-14T09:54:29;99761.29;;;8.94;65.58
76819;BME280;65772;51.096;17.006;2023-12-14T09:56:59;99762.27;;;8.92;65.54
76819;BME280;65772;51.096;17.006;2023-12-14T09:59:30;99761.70;;;8.90;65.44
76819;BME280;65772;51.096;17.006;2023-12-14T10:02:12;99762.01;;;8.88;65.63
76819;BME280;65772;51.096;17.006;2023-12-14T10:04:44;99761.11;;;8.87;65.90
76819;BME280;65772;51.096;17.006;2023-12-14T10:07:15;99762.77;;;8.85;66.03
76819;BME280;65772;51.096;17.006;2023-12-14T10:09:46;99766.66;;;8.84;65.94
76819;BME280;65772;51.096;17.006;2023-12-14T10:12:16;99767.73;;;8.86;65.36
76819;BME280;65772;51.096;17.006;2023-12-14T10:14:47;99772.94;;;8.90;65.77
76819;BME280;65772;51.096;17.006;2023-12-14T10:17:20;99773.70;;;8.93;65.69
76819;BME280;65772;51.096;17.006;2023-12-14T10:19:53;99775.61;;;8.95;65.81
76819;BME280;65772;51.096;17.006;2023-12-14T10:22:27;99777.66;;;8.95;65.33
76819;BME280;65772;51.096;17.006;2023-12-14T10:25:02;99779.08;;;8.96;65.61
76819;BME280;65772;51.096;17.006;2023-12-14T10:27:32;99781.81;;;8.97;65.17
76819;BME280;65772;51.096;17.006;2023-12-14T10:30:08;99781.66;;;8.98;65.26
76819;BME280;65772;51.096;17.006;2023-12-14T10:32:41;99786.40;;;8.97;65.02
76819;BME280;65772;51.096;17.006;2023-12-14T10:35:13;99789.24;;;8.95;64.81
76819;BME280;65772;51.096;17.006;2023-12-14T10:37:45;99790.36;;;8.93;64.78
76819;BME280;65772;51.096;17.006;2023-12-14T10:40:16;99791.69;;;8.91;64.79
76819;BME280;65772;51.096;17.006;2023-12-14T10:42:47;99799.44;;;8.88;64.69
76819;BME280;65772;51.096;17.006;2023-12-14T10:45:20;99799.35;;;8.85;64.71
76819;BME280;65772;51.096;17.006;2023-12-14T10:47:56;99799.95;;;8.82;64.58
76819;BME280;65772;51.096;17.006;2023-12-14T10:50:30;99803.44;;;8.78;64.87
76819;BME280;65772;51.096;17.006;2023-12-14T10:53:01;99806.58;;;8.75;64.92
76819;BME280;65772;51.096;17.006;2023-12-14T10:55:38;99807.00;;;8.72;65.09
76819;BME280;65772;51.096;17.006;2023-12-14T10:58:11;99807.61;;;8.70;65.09
76819;BME280;65772;51.096;17.006;2023-12-14T11:00:43;99812.55;;;8.70;65.03
76819;BME280;65772;51.096;17.006;2023-12-14T11:03:16;99817.91;;;8.72;65.13
76819;BME280;65772;51.096;17.006;2023-12-14T11:05:46;99816.94;;;8.74;65.19
76819;BME280;65772;51.096;17.006;2023-12-14T11:08:17;99820.41;;;8.76;64.85
76819;BME280;65772;51.096;17.006;2023-12-14T11:11:00;99824.86;;;8.77;64.85
76819;BME280;65772;51.096;17.006;2023-12-14T11:13:38;99829.95;;;8.77;65.01
76819;BME280;65772;51.096;17.006;2023-12-14T11:16:10;99835.48;;;8.74;64.93
76819;BME280;65772;51.096;17.006;2023-12-14T11:18:43;99840.23;;;8.74;64.82
76819;BME280;65772;51.096;17.006;2023-12-14T11:21:19;99843.55;;;8.71;64.72
76819;BME280;65772;51.096;17.006;2023-12-14T11:23:51;99848.08;;;8.68;65.14
76819;BME280;65772;51.096;17.006;2023-12-14T11:26:26;99851.58;;;8.65;65.20
76819;BME280;65772;51.096;17.006;2023-12-14T11:28:58;99857.08;;;8.62;65.32
76819;BME280;65772;51.096;17.006;2023-12-14T11:31:28;99857.80;;;8.58;65.24
76819;BME280;65772;51.096;17.006;2023-12-14T11:33:59;99858.27;;;8.56;65.29
76819;BME280;65772;51.096;17.006;2023-12-14T11:36:33;99860.30;;;8.56;65.45
76819;BME280;65772;51.096;17.006;2023-12-14T11:39:05;99861.38;;;8.57;65.66
76819;BME280;65772;51.096;17.006;2023-12-14T11:41:35;99867.36;;;8.59;65.65
76819;BME280;65772;51.096;17.006;2023-12-14T11:44:07;99869.80;;;8.61;65.27
76819;BME280;65772;51.096;17.006;2023-12-14T11:46:38;99872.29;;;8.64;65.97
76819;BME280;65772;51.096;17.006;2023-12-14T11:49:12;99876.96;;;8.66;65.53
76819;BME280;65772;51.096;17.006;2023-12-14T11:51:46;99880.58;;;8.69;65.32
76819;BME280;65772;51.096;17.006;2023-12-14T11:54:16;99881.60;;;8.68;64.99
76819;BME280;65772;51.096;17.006;2023-12-14T11:56:48;99881.90;;;8.67;65.52
76819;BME280;65772;51.096;17.006;2023-12-14T11:59:20;99885.61;;;8.66;65.16
76819;BME280;65772;51.096;17.006;2023-12-14T12:01:58;99884.89;;;8.65;65.35
76819;BME280;65772;51.096;17.006;2023-12-14T12:04:30;99884.20;;;8.64;65.35
76819;BME280;65772;51.096;17.006;2023-12-14T12:07:05;99885.70;;;8.63;65.26
76819;BME280;65772;51.096;17.006;2023-12-14T12:09:40;99894.86;;;8.62;65.27
76819;BME280;65772;51.096;17.006;2023-12-14T12:12:12;99897.36;;;8.61;65.03
76819;BME280;65772;51.096;17.006;2023-12-14T12:14:43;99902.91;;;8.59;65.00
76819;BME280;65772;51.096;17.006;2023-12-14T12:17:13;99900.52;;;8.58;65.19
76819;BME280;65772;51.096;17.006;2023-12-14T12:19:45;99899.48;;;8.58;65.04
76819;BME280;65772;51.096;17.006;2023-12-14T12:22:15;99905.97;;;8.59;65.29
76819;BME280;65772;51.096;17.006;2023-12-14T12:24:46;99905.01;;;8.60;65.06
76819;BME280;65772;51.096;17.006;2023-12-14T12:27:26;99909.30;;;8.62;65.49
76819;BME280;65772;51.096;17.006;2023-12-14T12:29:56;99913.80;;;8.64;65.19
76819;BME280;65772;51.096;17.006;2023-12-14T12:32:27;99915.40;;;8.66;65.22
76819;BME280;65772;51.096;17.006;2023-12-14T12:34:58;99914.53;;;8.65;65.16
76819;BME280;65772;51.096;17.006;2023-12-14T12:37:28;99917.94;;;8.66;65.24
76819;BME280;65772;51.096;17.006;2023-12-14T12:39:59;99923.39;;;8.66;65.20
76819;BME280;65772;51.096;17.006;2023-12-14T12:42:29;99924.58;;;8.66;64.96
76819;BME280;65772;51.096;17.006;2023-12-14T12:45:00;99928.48;;;8.66;65.04
76819;BME280;65772;51.096;17.006;2023-12-14T12:47:31;99934.70;;;8.63;64.75
76819;BME280;65772;51.096;17.006;2023-12-14T12:50:03;99938.70;;;8.61;64.79
76819;BME280;65772;51.096;17.006;2023-12-14T12:52:34;99942.56;;;8.59;64.72
76819;BME280;65772;51.096;17.006;2023-12-14T12:55:06;99951.70;;;8.57;64.87
76819;BME280;65772;51.096;17.006;2023-12-14T12:57:35;99954.51;;;8.54;65.01
76819;BME280;65772;51.096;17.006;2023-12-14T13:00:08;99957.13;;;8.51;64.65
76819;BME280;65772;51.096;17.006;2023-12-14T13:02:41;99952.61;;;8.49;64.75
76819;BME280;65772;51.096;17.006;2023-12-14T13:05:13;99951.36;;;8.47;64.65
76819;BME280;65772;51.096;17.006;2023-12-14T13:07:46;99950.48;;;8.45;64.37
76819;BME280;65772;51.096;17.006;2023-12-14T13:10:17;99952.02;;;8.45;64.54
76819;BME280;65772;51.096;17.006;2023-12-14T13:12:59;99949.34;;;8.48;64.35
76819;BME280;65772;51.096;17.006;2023-12-14T13:15:30;99949.02;;;8.48;64.22
76819;BME280;65772;51.096;17.006;2023-12-14T13:18:01;99953.80;;;8.49;63.82
76819;BME280;65772;51.096;17.006;2023-12-14T13:20:32;99960.59;;;8.48;63.87